createdAt,value
2023-02-15T00:00:16.366Z,46.07
2023-02-15T00:03:05.221Z,50.17
2023-02-15T00:05:54.077Z,56.33
2023-02-15T00:08:43.257Z,48.47
2023-02-15T00:11:52.319Z,49.63
2023-02-15T00:14:41.220Z,48.77
2023-02-15T00:17:31.649Z,51.93
2023-02-15T00:20:21.198Z,51.37
2023-02-15T00:23:10.057Z,54.30
2023-02-15T00:26:06.846Z,47.57
2023-02-15T00:28:56.590Z,52.03
2023-02-15T00:31:45.488Z,50.57
2023-02-15T00:34:36.012Z,51.10
2023-02-15T00:37:24.748Z,52.63
2023-02-15T00:40:14.027Z,51.83
2023-02-15T00:43:02.763Z,52.33
2023-02-15T00:45:51.670Z,49.57
2023-02-15T00:48:40.556Z,52.70
2023-02-15T00:51:31.149Z,53.40
2023-02-15T00:54:19.986Z,49.73
2023-02-15T00:57:08.793Z,54.63
2023-02-15T00:59:57.442Z,55.10
2023-02-15T01:02:46.175Z,50.93
2023-02-15T01:05:35.264Z,52.77
2023-02-15T01:08:28.095Z,56.50
2023-02-15T01:11:23.267Z,52.60
2023-02-15T01:14:14.238Z,53.93
2023-02-15T01:17:06.937Z,53.73
2023-02-15T01:19:57.734Z,56.83
2023-02-15T01:22:46.529Z,54.73
2023-02-15T01:25:38.865Z,54.87
2023-02-15T01:28:27.684Z,53.90
2023-02-15T01:31:19.346Z,55.17
2023-02-15T01:34:08.065Z,54.77
2023-02-15T01:36:56.765Z,56.00
2023-02-15T01:39:45.940Z,56.07
2023-02-15T01:42:36.763Z,54.77
2023-02-15T01:45:27.692Z,58.97
2023-02-15T01:48:23.452Z,56.97
2023-02-15T01:51:12.639Z,55.43
2023-02-15T01:54:05.804Z,63.23
2023-02-15T01:57:02.627Z,58.07
2023-02-15T01:59:59.428Z,52.27
2023-02-15T02:02:52.590Z,55.67
2023-02-15T02:05:41.809Z,56.40
2023-02-15T02:08:31.027Z,52.63
2023-02-15T02:11:20.009Z,52.97
2023-02-15T02:14:09.561Z,55.57
2023-02-15T02:17:07.008Z,56.30
2023-02-15T02:20:31.359Z,52.33
2023-02-15T02:23:32.759Z,56.20
2023-02-15T02:27:04.627Z,50.57
2023-02-15T02:30:16.350Z,56.57
2023-02-15T02:33:32.307Z,52.57
2023-02-15T02:36:28.484Z,53.47
2023-02-15T02:39:31.482Z,60.53
2023-02-15T02:42:28.312Z,50.77
2023-02-15T02:45:23.328Z,56.63
2023-02-15T02:48:17.602Z,56.10
2023-02-15T02:51:08.051Z,53.23
2023-02-15T02:54:01.046Z,53.90
2023-02-15T02:56:51.800Z,55.17
2023-02-15T02:59:47.711Z,53.90
2023-02-15T03:02:42.356Z,57.73
2023-02-15T03:05:32.229Z,57.93
2023-02-15T03:08:28.932Z,53.60
2023-02-15T03:11:17.995Z,58.73
2023-02-15T03:14:06.943Z,58.67
2023-02-15T03:16:58.058Z,55.20
2023-02-15T03:19:48.690Z,56.37
2023-02-15T03:22:40.791Z,49.70
2023-02-15T03:25:37.821Z,47.17
2023-02-15T03:28:33.268Z,49.13
2023-02-15T03:31:25.749Z,48.57
2023-02-15T03:34:15.982Z,52.27
2023-02-15T03:37:12.661Z,47.60
2023-02-15T03:40:26.167Z,49.27
2023-02-15T03:43:24.666Z,38.40
2023-02-15T03:46:18.010Z,35.47
2023-02-15T03:49:11.606Z,39.80
2023-02-15T03:52:02.698Z,47.80
2023-02-15T03:54:52.267Z,38.90
2023-02-15T03:57:58.419Z,35.80
2023-02-15T04:01:15.865Z,39.47
2023-02-15T04:04:11.766Z,44.33
2023-02-15T04:07:00.998Z,36.90
2023-02-15T04:10:07.117Z,36.30
2023-02-15T04:12:55.849Z,32.63
2023-02-15T04:16:02.570Z,35.67
2023-02-15T04:19:10.736Z,41.63
2023-02-15T04:22:17.539Z,35.07
2023-02-15T04:25:12.846Z,38.27
2023-02-15T04:28:01.702Z,34.77
2023-02-15T04:30:50.996Z,33.73
2023-02-15T04:33:39.667Z,37.17
2023-02-15T04:36:30.230Z,34.87
2023-02-15T04:39:20.337Z,34.40
2023-02-15T04:42:09.125Z,37.47
2023-02-15T04:45:01.043Z,37.83
2023-02-15T04:47:50.084Z,34.30
2023-02-15T04:50:38.754Z,36.73
2023-02-15T04:53:29.051Z,32.47
2023-02-15T04:56:18.012Z,38.03
2023-02-15T04:59:06.714Z,38.87
2023-02-15T05:01:55.473Z,36.97
2023-02-15T05:04:44.143Z,33.70
2023-02-15T05:07:33.225Z,38.63
2023-02-15T05:10:24.089Z,39.03
2023-02-15T05:13:13.042Z,39.77
2023-02-15T05:16:02.239Z,41.13
2023-02-15T05:18:51.276Z,36.40
2023-02-15T05:21:40.259Z,39.20
2023-02-15T05:24:46.719Z,38.57
2023-02-15T05:27:54.098Z,38.23
2023-02-15T05:30:43.028Z,35.63
2023-02-15T05:33:32.329Z,40.20
2023-02-15T05:36:21.069Z,38.13
2023-02-15T05:39:09.701Z,40.47
2023-02-15T05:42:01.165Z,40.23
2023-02-15T05:44:51.445Z,40.03
2023-02-15T05:47:40.193Z,39.47
2023-02-15T05:50:29.124Z,39.43
2023-02-15T05:53:18.072Z,40.10
2023-02-15T05:56:08.097Z,40.53
2023-02-15T05:58:57.743Z,41.67
2023-02-15T06:01:48.020Z,40.73
2023-02-15T06:04:36.893Z,40.03
2023-02-15T06:07:25.545Z,40.17
2023-02-15T06:10:14.365Z,41.13
2023-02-15T06:13:03.637Z,42.77
2023-02-15T06:15:52.381Z,37.93
2023-02-15T06:18:42.458Z,36.53
2023-02-15T06:21:31.503Z,40.27
2023-02-15T06:24:20.206Z,39.80
2023-02-15T06:27:09.014Z,41.23
2023-02-15T06:30:00.065Z,42.10
2023-02-15T06:32:48.937Z,40.87
2023-02-15T06:35:39.207Z,40.23
2023-02-15T06:38:28.005Z,39.57
2023-02-15T06:41:16.677Z,44.20
2023-02-15T06:44:05.743Z,40.93
2023-02-15T06:46:54.694Z,40.53
2023-02-15T06:49:43.460Z,44.23
2023-02-15T06:52:33.745Z,46.07
2023-02-15T06:55:22.454Z,46.03
2023-02-15T06:58:11.519Z,46.37
2023-02-15T07:01:00.501Z,45.43
2023-02-15T07:03:49.626Z,44.60
2023-02-15T07:06:38.460Z,46.57
2023-02-15T07:09:28.626Z,50.20
2023-02-15T07:12:31.218Z,45.57
2023-02-15T07:15:22.898Z,44.97
2023-02-15T07:18:12.215Z,47.10
2023-02-15T07:21:01.062Z,46.43
2023-02-15T07:23:49.979Z,40.00
2023-02-15T07:26:40.071Z,37.87
2023-02-15T07:29:28.923Z,39.60
2023-02-15T07:32:17.880Z,43.13
2023-02-15T07:35:07.480Z,39.63
2023-02-15T07:37:59.093Z,44.83
2023-02-15T07:40:48.181Z,42.97
2023-02-15T07:43:40.174Z,47.47
2023-02-15T07:46:29.755Z,37.93
2023-02-15T07:49:18.555Z,39.30
2023-02-15T07:52:07.676Z,41.13
2023-02-15T07:54:56.853Z,40.97
2023-02-15T07:57:46.519Z,42.33
2023-02-15T08:00:58.149Z,41.43
2023-02-15T08:03:47.283Z,42.43
2023-02-15T08:06:37.908Z,45.53
2023-02-15T08:09:26.580Z,46.40
2023-02-15T08:12:15.501Z,43.87
2023-02-15T08:15:04.218Z,41.13
2023-02-15T08:17:55.188Z,41.13
2023-02-15T08:20:44.086Z,38.63
2023-02-15T08:23:33.041Z,40.93
2023-02-15T08:26:22.829Z,34.77
2023-02-15T08:29:11.961Z,36.50
2023-02-15T08:32:04.049Z,39.23
2023-02-15T08:34:54.307Z,30.30
2023-02-15T08:37:43.145Z,31.40
2023-02-15T08:40:32.181Z,33.47
2023-02-15T08:43:20.880Z,33.27
2023-02-15T08:46:09.869Z,32.10
2023-02-15T08:48:59.838Z,29.93
2023-02-15T08:51:50.698Z,28.13
2023-02-15T08:54:39.803Z,30.07
2023-02-15T08:57:30.344Z,31.63
2023-02-15T09:00:20.355Z,32.97
2023-02-15T09:03:09.083Z,29.40
2023-02-15T09:06:02.498Z,32.20
2023-02-15T09:08:53.306Z,31.10
2023-02-15T09:11:43.918Z,33.67
2023-02-15T09:14:32.729Z,32.53
2023-02-15T09:17:21.486Z,31.97
2023-02-15T09:20:11.092Z,33.97
2023-02-15T09:23:01.111Z,30.50
2023-02-15T09:25:51.580Z,32.57
2023-02-15T09:28:40.634Z,29.57
2023-02-15T09:31:31.412Z,29.57
2023-02-15T09:34:22.256Z,32.70
2023-02-15T09:37:11.298Z,29.77
2023-02-15T09:40:00.402Z,32.90
2023-02-15T09:43:23.173Z,31.80
2023-02-15T09:46:30.169Z,36.30
2023-02-15T09:49:29.410Z,34.17
2023-02-15T09:52:30.687Z,32.33
2023-02-15T09:55:40.552Z,33.33
2023-02-15T09:58:39.464Z,33.23
2023-02-15T10:01:37.079Z,38.00
2023-02-15T10:04:45.694Z,33.40
2023-02-15T10:08:02.057Z,31.10
2023-02-15T10:11:19.411Z,36.27
2023-02-15T10:14:38.991Z,38.60
2023-02-15T10:17:41.870Z,37.40
2023-02-15T10:20:42.727Z,36.47
2023-02-15T10:23:54.838Z,33.73
2023-02-15T10:26:46.426Z,33.23
2023-02-15T10:29:38.532Z,36.53
2023-02-15T10:32:30.440Z,36.47
2023-02-15T10:35:28.481Z,38.77
2023-02-15T10:38:26.767Z,29.97
2023-02-15T10:41:28.844Z,28.30
2023-02-15T10:44:38.890Z,31.50
2023-02-15T10:47:50.725Z,33.07
2023-02-15T10:50:49.678Z,35.17
2023-02-15T10:54:02.160Z,33.40
2023-02-15T10:57:01.695Z,35.20
2023-02-15T11:00:06.322Z,33.23
2023-02-15T11:03:24.393Z,35.33
2023-02-15T11:06:16.094Z,33.63
2023-02-15T11:09:11.344Z,33.53
2023-02-15T11:12:02.181Z,35.03
2023-02-15T11:14:59.830Z,32.30
2023-02-15T11:17:53.283Z,36.67
2023-02-15T11:20:51.904Z,39.43
2023-02-15T11:23:45.694Z,40.80
2023-02-15T11:26:36.753Z,35.87
2023-02-15T11:29:34.210Z,34.70
2023-02-15T11:32:26.045Z,34.77
2023-02-15T11:35:26.852Z,41.10
2023-02-15T11:38:22.523Z,41.43
2023-02-15T11:41:14.185Z,37.50
2023-02-15T11:44:10.508Z,38.90
2023-02-15T11:46:59.830Z,39.23
2023-02-15T11:49:48.748Z,42.63
2023-02-15T11:52:38.529Z,45.37
2023-02-15T11:55:30.961Z,44.00
2023-02-15T11:58:30.893Z,49.33
2023-02-15T12:01:25.648Z,48.83
2023-02-15T12:04:23.195Z,46.33
2023-02-15T12:07:18.905Z,48.57
2023-02-15T12:10:21.518Z,40.50
2023-02-15T12:13:16.438Z,48.37
2023-02-15T12:16:13.797Z,42.77
2023-02-15T12:19:04.564Z,41.87
2023-02-15T12:21:55.513Z,40.47
2023-02-15T12:24:48.643Z,37.97
2023-02-15T12:27:38.226Z,42.57
2023-02-15T12:30:35.350Z,46.50
2023-02-15T12:33:30.580Z,46.43
2023-02-15T12:36:23.699Z,42.07
2023-02-15T12:39:28.843Z,46.60
2023-02-15T12:42:20.519Z,46.60
2023-02-15T12:45:26.357Z,45.40
2023-02-15T12:48:21.735Z,46.87
2023-02-15T12:51:15.351Z,44.57
2023-02-15T12:54:32.367Z,47.07
2023-02-15T12:57:27.963Z,51.37
2023-02-15T13:00:33.063Z,50.87
2023-02-15T13:03:25.144Z,50.63
2023-02-15T13:06:13.886Z,71.70
2023-02-15T13:09:16.394Z,52.30
2023-02-15T13:12:21.098Z,51.43
2023-02-15T13:15:33.294Z,53.43
2023-02-15T13:18:31.281Z,47.83
2023-02-15T13:21:22.929Z,48.80
2023-02-15T13:24:23.003Z,46.10
2023-02-15T13:27:17.659Z,52.17
2023-02-15T13:30:24.581Z,51.40
2023-02-15T13:33:20.545Z,49.70
2023-02-15T13:36:19.194Z,48.83
2023-02-15T13:39:17.959Z,50.30
2023-02-15T13:42:22.541Z,50.57
2023-02-15T13:45:34.859Z,50.43
2023-02-15T13:48:45.678Z,48.23
2023-02-15T13:51:43.812Z,49.13
2023-02-15T13:55:10.630Z,46.70
2023-02-15T13:58:39.518Z,50.97
2023-02-15T14:01:36.554Z,54.63
2023-02-15T14:04:46.771Z,51.73
2023-02-15T14:07:55.459Z,52.67
2023-02-15T14:10:51.170Z,53.03
2023-02-15T14:14:01.316Z,52.90
2023-02-15T14:17:06.668Z,55.17
2023-02-15T14:20:02.199Z,53.73
2023-02-15T14:23:02.311Z,59.50
2023-02-15T14:25:58.325Z,56.20
2023-02-15T14:28:53.966Z,55.33
2023-02-15T14:31:46.331Z,54.03
2023-02-15T14:34:47.377Z,56.63
2023-02-15T14:37:45.418Z,59.27
2023-02-15T14:41:02.663Z,57.90
2023-02-15T14:44:01.452Z,66.77
2023-02-15T14:46:58.213Z,63.27
2023-02-15T14:49:47.008Z,62.60
2023-02-15T14:53:14.296Z,59.50
2023-02-15T14:56:27.569Z,61.63
2023-02-15T14:59:20.440Z,58.57
2023-02-15T15:02:17.737Z,57.23
2023-02-15T15:05:11.948Z,59.90
2023-02-15T15:08:03.470Z,56.63
2023-02-15T15:10:52.329Z,51.93
2023-02-15T15:14:03.739Z,51.70
2023-02-15T15:16:53.511Z,47.83
2023-02-15T15:20:14.088Z,55.00
2023-02-15T15:23:40.655Z,49.47
2023-02-15T15:26:34.405Z,48.70
2023-02-15T15:29:42.356Z,49.47
2023-02-15T15:32:35.792Z,49.27
2023-02-15T15:35:36.036Z,52.43
2023-02-15T15:38:39.935Z,46.87
2023-02-15T15:41:42.838Z,47.43
2023-02-15T15:45:11.949Z,46.47
2023-02-15T15:48:12.779Z,45.50
2023-02-15T15:51:06.725Z,49.63
2023-02-15T15:53:59.208Z,47.07
2023-02-15T15:56:53.314Z,45.80
2023-02-15T15:59:47.873Z,47.00
2023-02-15T16:02:37.067Z,45.30
2023-02-15T16:05:26.202Z,43.10
2023-02-15T16:08:16.686Z,47.07
2023-02-15T16:11:21.726Z,44.37
2023-02-15T16:14:17.359Z,48.93
2023-02-15T16:17:11.131Z,44.97
2023-02-15T16:20:03.689Z,46.63
2023-02-15T16:23:00.279Z,47.30
2023-02-15T16:25:59.988Z,46.57
2023-02-15T16:28:52.706Z,49.03
2023-02-15T16:31:41.641Z,49.60
2023-02-15T16:34:33.756Z,49.07
2023-02-15T16:37:24.529Z,51.53
2023-02-15T16:40:29.766Z,44.77
2023-02-15T16:43:22.623Z,44.80
2023-02-15T16:46:16.614Z,43.90
2023-02-15T16:49:09.682Z,44.07
2023-02-15T16:52:02.398Z,47.77
2023-02-15T16:54:56.809Z,40.97
2023-02-15T16:57:46.254Z,48.73
2023-02-15T17:00:38.988Z,49.37
2023-02-15T17:03:28.465Z,49.60
2023-02-15T17:06:23.552Z,48.40
2023-02-15T17:09:20.732Z,52.87
2023-02-15T17:12:11.898Z,53.43
2023-02-15T17:15:01.407Z,54.70
2023-02-15T17:17:50.352Z,52.47
2023-02-15T17:20:42.771Z,52.20
2023-02-15T17:23:34.803Z,52.87
2023-02-15T17:26:27.275Z,52.37
2023-02-15T17:29:26.153Z,52.27
2023-02-15T17:32:20.101Z,48.80
2023-02-15T17:35:18.719Z,52.83
2023-02-15T17:38:17.432Z,56.47
2023-02-15T17:41:06.360Z,50.47
2023-02-15T17:43:57.305Z,52.27
2023-02-15T17:46:46.261Z,50.27
2023-02-15T17:49:38.214Z,44.97
2023-02-15T17:52:34.313Z,48.70
2023-02-15T17:55:36.857Z,47.87
2023-02-15T17:58:25.932Z,47.17
2023-02-15T18:01:38.686Z,47.37
2023-02-15T18:04:45.056Z,49.40
2023-02-15T18:07:51.251Z,50.73
2023-02-15T18:10:58.251Z,48.50
2023-02-15T18:13:47.241Z,52.73
2023-02-15T18:16:41.056Z,55.57
2023-02-15T18:19:30.005Z,56.47
2023-02-15T18:22:20.245Z,57.40
2023-02-15T18:25:14.536Z,58.67
2023-02-15T18:28:03.698Z,55.47
2023-02-15T18:30:52.532Z,59.60
2023-02-15T18:33:47.444Z,68.87
2023-02-15T18:36:43.281Z,59.07
2023-02-15T18:39:38.409Z,54.77
2023-02-15T18:42:28.935Z,62.80
2023-02-15T18:45:20.122Z,60.37
2023-02-15T18:48:10.105Z,61.57
2023-02-15T18:51:00.465Z,59.90
2023-02-15T18:53:52.288Z,57.50
2023-02-15T18:56:41.177Z,58.07
2023-02-15T18:59:32.566Z,63.03
2023-02-15T19:02:21.879Z,61.63
2023-02-15T19:05:10.842Z,66.33
2023-02-15T19:08:03.281Z,58.57
2023-02-15T19:10:53.034Z,62.80
2023-02-15T19:13:41.887Z,61.73
2023-02-15T19:16:33.316Z,59.77
2023-02-15T19:19:22.562Z,61.30
2023-02-15T19:22:16.017Z,61.80
2023-02-15T19:25:07.654Z,63.70
2023-02-15T19:27:58.210Z,61.27
2023-02-15T19:30:47.940Z,64.23
2023-02-15T19:33:37.679Z,63.37
2023-02-15T19:36:26.643Z,62.20
2023-02-15T19:39:26.068Z,64.10
2023-02-15T19:42:24.930Z,64.20
2023-02-15T19:45:16.391Z,65.53
2023-02-15T19:48:07.913Z,61.33
2023-02-15T19:50:57.370Z,65.70
2023-02-15T19:53:47.927Z,61.60
2023-02-15T19:56:37.349Z,63.03
2023-02-15T19:59:29.949Z,59.37
2023-02-15T20:02:20.600Z,59.23
2023-02-15T20:05:09.583Z,64.37
2023-02-15T20:07:59.287Z,65.97
2023-02-15T20:10:48.431Z,62.93
2023-02-15T20:13:37.384Z,65.43
2023-02-15T20:16:28.801Z,65.73
2023-02-15T20:19:18.208Z,66.43
2023-02-15T20:22:07.309Z,62.80
2023-02-15T20:24:57.147Z,66.67
2023-02-15T20:27:45.939Z,60.53
2023-02-15T20:30:34.857Z,63.50
2023-02-15T20:33:25.159Z,62.97
2023-02-15T20:36:17.145Z,68.70
2023-02-15T20:39:12.484Z,63.60
2023-02-15T20:42:03.478Z,64.80
2023-02-15T20:44:52.598Z,65.50
2023-02-15T20:47:44.014Z,62.87
2023-02-15T20:50:35.511Z,69.57
2023-02-15T20:53:24.557Z,69.17
2023-02-15T20:56:20.369Z,65.33
2023-02-15T20:59:21.723Z,68.43
2023-02-15T21:02:18.976Z,64.90
2023-02-15T21:05:16.917Z,64.93
2023-02-15T21:08:14.710Z,72.23
2023-02-15T21:11:04.671Z,70.80
2023-02-15T21:13:53.987Z,70.07
2023-02-15T21:16:42.784Z,68.67
2023-02-15T21:19:32.254Z,64.50
2023-02-15T21:22:21.672Z,64.83
2023-02-15T21:25:16.147Z,66.33
2023-02-15T21:28:05.584Z,64.97
2023-02-15T21:30:57.851Z,66.70
2023-02-15T21:33:46.820Z,63.60
2023-02-15T21:36:35.733Z,70.00
2023-02-15T21:39:26.799Z,70.70
2023-02-15T21:42:34.262Z,68.77
2023-02-15T21:45:40.805Z,67.23
2023-02-15T21:48:29.955Z,65.33
2023-02-15T21:51:36.506Z,67.53
2023-02-15T21:54:25.347Z,66.67
2023-02-15T21:57:17.432Z,66.67
2023-02-15T22:00:08.217Z,70.27
2023-02-15T22:02:58.691Z,67.77
2023-02-15T22:05:47.337Z,71.50
2023-02-15T22:08:36.341Z,72.20
2023-02-15T22:11:25.321Z,67.70
2023-02-15T22:14:38.052Z,77.87
2023-02-15T22:17:29.199Z,73.93
2023-02-15T22:20:20.494Z,81.77
2023-02-15T22:23:09.779Z,81.30
2023-02-15T22:26:05.242Z,78.47
2023-02-15T22:28:54.106Z,76.90
2023-02-15T22:31:45.462Z,77.03
2023-02-15T22:34:34.287Z,73.60
2023-02-15T22:37:23.583Z,78.60
2023-02-15T22:40:16.501Z,79.73
2023-02-15T22:43:07.298Z,85.50
2023-02-15T22:46:01.638Z,84.37
2023-02-15T22:48:53.218Z,85.50
2023-02-15T22:51:42.473Z,86.97
2023-02-15T22:54:31.169Z,83.57
2023-02-15T22:57:24.174Z,85.17
2023-02-15T23:00:18.463Z,87.47
2023-02-15T23:03:18.750Z,89.43
2023-02-15T23:06:11.576Z,88.63
2023-02-15T23:09:03.767Z,90.60
2023-02-15T23:11:53.806Z,97.37
2023-02-15T23:14:42.464Z,94.90
2023-02-15T23:17:31.166Z,89.40
2023-02-15T23:20:20.175Z,83.60
2023-02-15T23:23:12.839Z,91.60
2023-02-15T23:26:04.319Z,96.07
2023-02-15T23:28:54.918Z,91.57
2023-02-15T23:31:45.976Z,95.27
2023-02-15T23:34:35.082Z,91.77
2023-02-15T23:37:23.948Z,87.43
2023-02-15T23:40:34.428Z,92.03
2023-02-15T23:43:24.517Z,94.60
2023-02-15T23:46:34.491Z,91.30
2023-02-15T23:49:23.729Z,92.03
2023-02-15T23:52:13.270Z,89.07
2023-02-15T23:55:03.132Z,96.07
2023-02-15T23:57:54.627Z,90.87
